createdAt,value
2019-05-02T14:23:53.175Z,959.73
2019-05-02T14:24:51.865Z,959.74
2019-05-02T14:25:52.030Z,959.77
2019-05-02T14:26:52.523Z,959.67
2019-05-02T14:27:52.140Z,959.8
2019-05-02T14:28:50.783Z,959.75
2019-05-02T14:29:52.475Z,959.84
2019-05-02T14:30:52.466Z,959.93
2019-05-02T14:31:51.918Z,959.83
2019-05-02T14:32:52.303Z,959.94
2019-05-02T14:33:52.361Z,959.9
2019-05-02T14:34:52.475Z,959.91
2019-05-02T14:35:52.521Z,959.92
2019-05-02T14:36:53.025Z,959.89
2019-05-02T14:37:50.718Z,959.91
2019-05-02T14:38:52.448Z,959.93
2019-05-02T14:39:52.416Z,959.93
2019-05-02T14:40:51.996Z,959.97
2019-05-02T14:41:52.382Z,959.95
2019-05-02T14:42:52.691Z,959.98
2019-05-02T14:43:52.995Z,960.06
2019-05-02T14:45:05.094Z,960
2019-05-02T14:45:57.377Z,960.05
2019-05-02T14:46:52.250Z,960.02
2019-05-02T14:47:57.202Z,960.04
2019-05-02T14:48:52.224Z,960.1
2019-05-02T14:49:52.148Z,960.08
2019-05-02T14:50:52.067Z,960.14
2019-05-02T14:51:52.454Z,960.12
2019-05-02T14:52:51.648Z,960.07
2019-05-02T14:53:52.541Z,960.04
2019-05-02T14:54:52.231Z,960.08
2019-05-02T14:55:50.596Z,960.07
2019-05-02T14:56:52.126Z,960.08
2019-05-02T14:57:52.401Z,960.02
2019-05-02T14:58:52.602Z,960.06
2019-05-02T14:59:59.016Z,960.03
2019-05-02T15:00:52.713Z,960.07
2019-05-02T15:01:52.577Z,960.03
2019-05-02T15:02:51.860Z,960.05
2019-05-02T15:03:50.538Z,960.01
2019-05-02T15:04:52.217Z,959.98
2019-05-02T15:05:52.603Z,959.93
2019-05-02T15:06:52.282Z,959.96
2019-05-02T15:07:51.793Z,959.98
2019-05-02T15:08:52.151Z,959.98
2019-05-02T15:09:52.309Z,960.07
2019-05-02T15:10:54.324Z,960.16
2019-05-02T15:11:52.322Z,960.25
2019-05-02T15:12:51.525Z,960.24
2019-05-02T15:13:52.305Z,960.22
2019-05-02T15:14:57.086Z,960.16
2019-05-02T15:15:50.455Z,960.18
2019-05-02T15:16:54.991Z,960.21
2019-05-02T15:17:50.439Z,960.22
2019-05-02T15:18:53.005Z,960.19
2019-05-02T15:19:52.495Z,960.22
2019-05-02T15:20:52.072Z,960.19
2019-05-02T15:21:52.389Z,960.15
2019-05-02T15:22:52.293Z,960.12
2019-05-02T15:23:54.087Z,960.1
2019-05-02T15:24:50.392Z,960.08
2019-05-02T15:25:52.355Z,960.06
2019-05-02T15:26:52.282Z,960.06
2019-05-02T15:27:58.124Z,960.05
2019-05-02T15:28:52.021Z,960
2019-05-02T15:29:53.706Z,959.96
2019-05-02T15:30:52.248Z,959.99
2019-05-02T15:31:52.378Z,959.96
2019-05-02T15:32:52.076Z,959.95
2019-05-02T15:33:51.799Z,959.93
2019-05-02T15:34:52.401Z,959.95
2019-05-02T15:35:50.319Z,959.92
2019-05-02T15:36:50.312Z,959.91
2019-05-02T15:37:51.778Z,959.91
2019-05-02T15:38:50.296Z,959.91
2019-05-02T15:41:28.881Z,959.96
2019-05-02T15:42:28.722Z,959.95
2019-05-02T15:43:28.716Z,959.93
2019-05-02T15:44:28.709Z,959.86
2019-05-02T15:45:28.702Z,959.88
2019-05-02T15:46:28.695Z,959.86
2019-05-02T15:47:28.689Z,959.92
2019-05-02T15:48:28.683Z,959.92
2019-05-02T15:49:28.681Z,959.92
2019-05-02T15:50:28.667Z,959.91
2019-05-02T15:51:28.669Z,959.87
2019-05-02T15:52:28.656Z,959.92
2019-05-02T15:53:28.654Z,959.86
2019-05-02T15:54:28.640Z,959.91
2019-05-02T15:55:32.140Z,959.89
2019-05-02T15:56:28.628Z,959.88
2019-05-02T15:57:32.918Z,959.92
2019-05-02T15:58:28.615Z,959.91
2019-05-02T15:59:28.606Z,959.88
2019-05-02T16:00:28.600Z,959.84
2019-05-02T16:01:28.592Z,959.89
2019-05-02T16:02:28.586Z,959.89
2019-05-02T16:03:28.579Z,959.86
2019-05-02T16:04:28.573Z,959.86
2019-05-02T16:05:28.565Z,959.93
2019-05-02T16:06:31.410Z,959.86
2019-05-02T16:07:28.553Z,959.88
2019-05-02T16:08:28.544Z,959.93
2019-05-02T16:09:28.537Z,959.93
2019-05-02T16:10:31.526Z,959.9
2019-05-02T16:11:28.524Z,959.98
2019-05-02T16:12:31.920Z,959.98
2019-05-02T16:13:28.511Z,959.98
2019-05-02T16:14:32.306Z,959.99
2019-05-02T16:15:28.496Z,960.03
2019-05-02T16:16:28.490Z,960.01
2019-05-02T16:17:28.484Z,960.03
2019-05-02T16:18:28.476Z,960.1
2019-05-02T16:19:29.216Z,960.09
2019-05-02T16:20:28.463Z,960.14
2019-05-02T16:21:30.070Z,960.11
2019-05-02T16:22:28.451Z,960.09
2019-05-02T16:23:32.833Z,960.1
2019-05-02T16:24:28.435Z,960.1
2019-05-02T16:25:28.429Z,960.11
2019-05-02T16:26:28.423Z,960.07
2019-05-02T16:27:29.143Z,960.08
2019-05-02T16:28:28.410Z,960.08
2019-05-02T16:29:29.103Z,960.11
2019-05-02T16:30:28.395Z,960.03
2019-05-02T16:31:28.389Z,960.07
2019-05-02T16:32:30.823Z,960.06
2019-05-02T16:33:28.375Z,960.04
2019-05-02T16:34:32.353Z,960.04
2019-05-02T16:35:28.361Z,960.06
2019-05-02T16:36:33.652Z,960.07
2019-05-02T16:37:28.347Z,960.03
2019-05-02T16:38:32.070Z,960.11
2019-05-02T16:39:28.333Z,960.15
2019-05-02T16:40:31.818Z,960.11
2019-05-02T16:41:28.319Z,960.12
2019-05-02T16:42:28.313Z,960.15
2019-05-02T16:43:28.307Z,960.12
2019-05-02T16:44:28.301Z,960.13
2019-05-02T16:45:28.293Z,960.09
2019-05-02T16:46:28.288Z,960.11
2019-05-02T16:47:28.281Z,960.13
2019-05-02T16:48:30.483Z,960.11
2019-05-02T16:49:28.266Z,960.1
2019-05-02T16:50:32.892Z,960.15
2019-05-02T16:51:32.140Z,960.14
2019-05-02T16:52:28.244Z,960.14
2019-05-02T16:53:30.855Z,960.12
2019-05-02T16:54:28.231Z,960.12
2019-05-02T16:55:28.225Z,960.12
2019-05-02T16:56:28.217Z,960.1
2019-05-02T16:57:28.210Z,960.15
2019-05-02T16:58:28.203Z,960.18
2019-05-02T16:59:28.197Z,960.17
2019-05-02T17:00:28.189Z,960.17
2019-05-02T17:01:28.538Z,960.2
2019-05-02T17:02:28.177Z,960.21
2019-05-02T17:03:28.168Z,960.23
2019-05-02T17:04:28.163Z,960.22
2019-05-02T17:05:28.157Z,960.24
2019-05-02T17:06:28.147Z,960.26
2019-05-02T17:07:28.140Z,960.25
2019-05-02T17:08:28.133Z,960.21
2019-05-02T17:09:28.677Z,960.22
2019-05-02T17:10:28.121Z,960.24
2019-05-02T17:11:32.271Z,960.2
2019-05-02T17:12:28.108Z,960.24
2019-05-02T17:13:32.645Z,960.24
2019-05-02T17:14:28.091Z,960.24
2019-05-02T17:15:31.047Z,960.24
2019-05-02T17:16:28.080Z,960.26
2019-05-02T17:17:31.488Z,960.26
2019-05-02T17:18:28.063Z,960.26
2019-05-02T17:19:31.286Z,960.25
2019-05-02T17:20:28.052Z,960.25
2019-05-02T17:21:32.179Z,960.19
2019-05-02T17:22:28.037Z,960.17
2019-05-02T17:23:28.029Z,960.18
2019-05-02T17:24:28.022Z,960.21
2019-05-02T17:25:28.015Z,960.21
2019-05-02T17:26:28.008Z,960.23
2019-05-02T17:27:28.000Z,960.3
2019-05-02T17:28:27.996Z,960.35
2019-05-02T17:29:27.987Z,960.33
2019-05-02T17:30:31.403Z,960.31
2019-05-02T17:31:27.973Z,960.28
2019-05-02T17:32:28.808Z,960.33
2019-05-02T17:33:27.960Z,960.32
2019-05-02T17:34:30.200Z,960.37
2019-05-02T17:35:27.944Z,960.35
2019-05-02T17:36:28.752Z,960.34
2019-05-02T17:37:27.930Z,960.34
2019-05-02T17:38:29.258Z,960.4
2019-05-02T17:39:27.920Z,960.39
2019-05-02T17:40:27.910Z,960.4
2019-05-02T17:41:27.904Z,960.37
2019-05-02T17:42:27.895Z,960.38
2019-05-02T17:43:27.887Z,960.37
2019-05-02T17:44:27.880Z,960.36
2019-05-02T17:45:27.878Z,960.4
2019-05-02T17:46:27.867Z,960.39
2019-05-02T17:47:30.855Z,960.34
2019-05-02T17:48:29.384Z,960.33
2019-05-02T17:49:31.662Z,960.32
2019-05-02T17:50:27.838Z,960.4
2019-05-02T17:51:28.244Z,960.39
2019-05-02T17:52:27.824Z,960.43
2019-05-02T17:53:27.818Z,960.44
2019-05-02T17:54:27.811Z,960.4
2019-05-02T17:55:27.802Z,960.41
2019-05-02T17:56:27.796Z,960.42
2019-05-02T17:57:28.450Z,960.43
2019-05-02T17:58:27.813Z,960.43
2019-05-02T17:59:28.156Z,960.46
2019-05-02T18:00:27.767Z,960.45
2019-05-02T18:01:31.707Z,960.47
2019-05-02T18:02:27.753Z,960.47
2019-05-02T18:03:30.853Z,960.44
2019-05-02T18:04:27.740Z,960.45
2019-05-02T18:05:31.862Z,960.46
2019-05-02T18:06:32.759Z,960.46
2019-05-02T18:07:31.789Z,960.46
2019-05-02T18:08:27.711Z,960.45
2019-05-02T18:09:31.525Z,960.45
2019-05-02T18:10:27.699Z,960.4
2019-05-02T18:11:29.538Z,960.42
2019-05-02T18:12:27.681Z,960.46
2019-05-02T18:13:29.080Z,960.38
2019-05-02T18:14:27.670Z,960.38
2019-05-02T18:15:29.824Z,960.41
2019-05-02T18:16:27.656Z,960.41
2019-05-02T18:17:28.940Z,960.42
2019-05-02T18:18:27.642Z,960.38
2019-05-02T18:19:27.636Z,960.38
2019-05-02T18:20:27.633Z,960.38
2019-05-02T18:21:28.786Z,960.42
2019-05-02T18:22:27.615Z,960.43
2019-05-02T18:23:27.786Z,960.38
2019-05-02T18:24:27.601Z,960.37
2019-05-02T18:25:27.594Z,960.36
2019-05-02T18:26:27.589Z,960.33
2019-05-02T18:27:27.594Z,960.33
2019-05-02T18:28:27.573Z,960.32
2019-05-02T18:29:27.567Z,960.34
2019-05-02T18:30:27.560Z,960.27
2019-05-02T18:31:27.555Z,960.31
2019-05-02T18:32:27.547Z,960.35
2019-05-02T18:33:27.564Z,960.39
2019-05-02T18:34:27.531Z,960.4
2019-05-02T18:35:27.537Z,960.43
2019-05-02T18:36:27.526Z,960.39
2019-05-02T18:37:27.512Z,960.42
2019-05-02T18:38:27.505Z,960.39
2019-05-02T18:39:27.498Z,960.39
2019-05-02T18:40:29.469Z,960.46
2019-05-02T18:41:27.485Z,960.44
2019-05-02T18:42:27.477Z,960.44
2019-05-02T18:43:27.470Z,960.5
2019-05-02T18:44:27.464Z,960.47
2019-05-02T18:45:28.739Z,960.49
2019-05-02T18:46:27.449Z,960.55
2019-05-02T18:47:27.442Z,960.56
2019-05-02T18:48:27.435Z,960.57
2019-05-02T18:49:27.428Z,960.6
2019-05-02T18:50:27.422Z,960.66
2019-05-02T18:51:27.415Z,960.63
2019-05-02T18:52:36.240Z,960.64
2019-05-02T18:53:27.540Z,960.63
2019-05-02T18:54:27.394Z,960.64
2019-05-02T18:55:27.388Z,960.66
2019-05-02T18:56:27.381Z,960.63
2019-05-02T18:57:29.449Z,960.65
2019-05-02T18:58:27.369Z,960.65
2019-05-02T18:59:27.455Z,960.67
2019-05-02T19:00:32.395Z,960.69
2019-05-02T19:01:27.346Z,960.7
2019-05-02T19:02:32.411Z,960.68
2019-05-02T19:03:27.333Z,960.69
2019-05-02T19:04:34.802Z,960.67
2019-05-02T19:05:27.328Z,960.7
2019-05-02T19:06:27.881Z,960.73
2019-05-02T19:07:32.929Z,960.76
2019-05-02T19:08:30.814Z,960.76
2019-05-02T19:09:30.388Z,960.78
2019-05-02T19:10:27.285Z,960.79
2019-05-02T19:11:31.904Z,960.81
2019-05-02T19:12:27.272Z,960.81
2019-05-02T19:13:29.729Z,960.83
2019-05-02T19:14:27.265Z,960.84
2019-05-02T19:15:27.251Z,960.82
2019-05-02T19:16:28.647Z,960.86
2019-05-02T19:17:27.258Z,960.89
2019-05-02T19:18:27.231Z,960.88
2019-05-02T19:19:31.946Z,960.91
2019-05-02T19:20:27.217Z,960.93
2019-05-02T19:21:31.858Z,961.02
2019-05-02T19:22:27.203Z,961.02
2019-05-02T19:23:27.198Z,961.04
2019-05-02T19:24:31.901Z,961.09
2019-05-02T19:25:27.184Z,961.08
2019-05-02T19:26:29.829Z,961.11
2019-05-02T19:27:27.171Z,961.1
2019-05-02T19:28:28.999Z,961.08
2019-05-02T19:29:27.156Z,961.12
2019-05-02T19:30:27.333Z,961.13
2019-05-02T19:31:27.142Z,961.17
2019-05-02T19:32:28.432Z,961.21
2019-05-02T19:33:27.128Z,961.23
2019-05-02T19:34:27.134Z,961.22
2019-05-02T19:35:27.114Z,961.29
2019-05-02T19:36:27.757Z,961.27
2019-05-02T19:37:27.100Z,961.36
2019-05-02T19:38:27.094Z,961.35
2019-05-02T19:39:27.087Z,961.38
2019-05-02T19:40:28.346Z,961.38
2019-05-02T19:41:27.074Z,961.42
2019-05-02T19:42:27.069Z,961.47
2019-05-02T19:43:27.058Z,961.48
2019-05-02T19:44:29.366Z,961.45
2019-05-02T19:45:27.044Z,961.5
2019-05-02T19:46:32.394Z,961.44
2019-05-02T19:47:27.033Z,961.39
2019-05-02T19:48:27.330Z,961.45
2019-05-02T19:49:27.017Z,961.5
2019-05-02T19:50:31.772Z,961.45
2019-05-02T19:51:28.191Z,961.48
2019-05-02T19:52:28.118Z,961.47
2019-05-02T19:53:26.986Z,961.52
2019-05-02T19:54:31.653Z,961.52
2019-05-02T19:55:27.485Z,961.55
2019-05-02T19:56:26.965Z,961.56
2019-05-02T19:57:26.957Z,961.57
2019-05-02T19:58:26.948Z,961.56
2019-05-02T19:59:29.529Z,961.59
2019-05-02T20:00:26.934Z,961.55
2019-05-02T20:01:26.937Z,961.57
2019-05-02T20:02:26.920Z,961.55
2019-05-02T20:03:26.911Z,961.55
2019-05-02T20:04:26.904Z,961.59
2019-05-02T20:05:26.896Z,961.55
2019-05-02T20:06:26.888Z,961.56
2019-05-02T20:07:26.882Z,961.58
2019-05-02T20:08:26.874Z,961.57
2019-05-02T20:09:26.864Z,961.61
2019-05-02T20:10:26.857Z,961.59
2019-05-02T20:11:27.997Z,961.6
2019-05-02T20:12:26.843Z,961.63
2019-05-02T20:13:28.475Z,961.63
2019-05-02T20:14:26.828Z,961.64
2019-05-02T20:15:27.981Z,961.67
2019-05-02T20:16:26.812Z,961.7
2019-05-02T20:17:26.805Z,961.64
2019-05-02T20:18:28.195Z,961.66
2019-05-02T20:19:27.163Z,961.73
2019-05-02T20:20:26.782Z,961.7
2019-05-02T20:21:27.773Z,961.7
2019-05-02T20:22:26.768Z,961.7
2019-05-02T20:23:31.365Z,961.78
2019-05-02T20:24:26.753Z,961.75
2019-05-02T20:25:29.760Z,961.71
2019-05-02T20:26:26.737Z,961.79
2019-05-02T20:27:28.327Z,961.76
2019-05-02T20:28:26.728Z,961.8
2019-05-02T20:29:26.716Z,961.83
2019-05-02T20:30:26.707Z,961.74
2019-05-02T20:31:26.698Z,961.76
2019-05-02T20:32:26.691Z,961.78
2019-05-02T20:33:26.685Z,961.77
2019-05-02T20:34:26.678Z,961.75
2019-05-02T20:35:26.669Z,961.72
2019-05-02T20:36:26.662Z,961.74
2019-05-02T20:37:26.654Z,961.7
2019-05-02T20:38:26.646Z,961.71
2019-05-02T20:39:26.640Z,961.72
2019-05-02T20:40:26.631Z,961.7
2019-05-02T20:41:26.624Z,961.72
2019-05-02T20:42:26.615Z,961.73
2019-05-02T20:43:26.608Z,961.7
2019-05-02T20:44:26.602Z,961.69
2019-05-02T20:45:26.620Z,961.71
2019-05-02T20:46:26.585Z,961.68
2019-05-02T20:47:26.578Z,961.69
2019-05-02T20:48:26.571Z,961.67
2019-05-02T20:49:26.562Z,961.71
2019-05-02T20:50:26.558Z,961.68
2019-05-02T20:51:26.547Z,961.69
2019-05-02T20:52:26.541Z,961.67
2019-05-02T20:53:30.813Z,961.74
2019-05-02T20:54:26.524Z,961.69
2019-05-02T20:55:26.517Z,961.68
2019-05-02T20:56:26.508Z,961.71
2019-05-02T20:57:26.501Z,961.71
2019-05-02T20:58:26.497Z,961.69
2019-05-02T20:59:26.488Z,961.71
2019-05-02T21:00:26.481Z,961.66
2019-05-02T21:01:26.476Z,961.66
2019-05-02T21:02:26.464Z,961.67
2019-05-02T21:03:26.456Z,961.67
2019-05-02T21:04:26.449Z,961.66
2019-05-02T21:05:26.463Z,961.7
2019-05-02T21:06:37.354Z,961.75
2019-05-02T21:07:26.451Z,961.69
2019-05-02T21:08:26.421Z,961.74
2019-05-02T21:09:26.412Z,961.71
2019-05-02T21:10:26.407Z,961.73
2019-05-02T21:11:26.396Z,961.7
2019-05-02T21:12:26.388Z,961.69
2019-05-02T21:13:26.381Z,961.7
2019-05-02T21:14:26.375Z,961.72
2019-05-02T21:15:26.367Z,961.7
2019-05-02T21:16:26.358Z,961.67
2019-05-02T21:17:26.350Z,961.7
2019-05-02T21:18:26.345Z,961.67
2019-05-02T21:19:26.338Z,961.66
2019-05-02T21:20:26.328Z,961.7
2019-05-02T21:21:26.321Z,961.67
2019-05-02T21:22:26.314Z,961.67
2019-05-02T21:23:26.306Z,961.68
2019-05-02T21:24:26.299Z,961.66
2019-05-02T21:25:26.291Z,961.7
2019-05-02T21:26:26.283Z,961.65
2019-05-02T21:27:26.279Z,961.6
2019-05-02T21:28:26.269Z,961.63
2019-05-02T21:29:26.261Z,961.65
2019-05-02T21:30:26.255Z,961.68
2019-05-02T21:31:26.293Z,961.66
2019-05-02T21:32:26.241Z,961.69
2019-05-02T21:33:26.232Z,961.68
2019-05-02T21:34:26.225Z,961.72
2019-05-02T21:35:26.217Z,961.78
2019-05-02T21:36:26.210Z,961.66
2019-05-02T21:37:26.202Z,961.65
2019-05-02T21:38:26.195Z,961.7
2019-05-02T21:39:26.189Z,961.75
2019-05-02T21:40:26.180Z,961.76
2019-05-02T21:41:26.172Z,961.79
2019-05-02T21:42:26.166Z,961.69
2019-05-02T21:43:26.159Z,961.72
2019-05-02T21:44:26.150Z,961.74
2019-05-02T21:45:26.144Z,961.7
2019-05-02T21:46:26.136Z,961.7
2019-05-02T21:47:26.130Z,961.64
2019-05-02T21:48:26.120Z,961.68
2019-05-02T21:49:26.114Z,961.68
2019-05-02T21:50:26.107Z,961.69
2019-05-02T21:51:26.098Z,961.65
2019-05-02T21:52:26.091Z,961.67
2019-05-02T21:53:26.086Z,961.66
2019-05-02T21:54:26.078Z,961.67
2019-05-02T21:55:26.069Z,961.63
2019-05-02T21:56:26.066Z,961.63
2019-05-02T21:57:26.055Z,961.64
2019-05-02T21:58:26.047Z,961.71
2019-05-02T21:59:26.040Z,961.66
2019-05-02T22:00:26.033Z,961.7
2019-05-02T22:01:26.026Z,961.68
2019-05-02T22:02:26.018Z,961.68
2019-05-02T22:03:26.010Z,961.65
2019-05-02T22:04:26.006Z,961.7
2019-05-02T22:05:25.995Z,961.65
2019-05-02T22:06:25.987Z,961.65
2019-05-02T22:07:25.983Z,961.65
2019-05-02T22:08:25.973Z,961.61
2019-05-02T22:09:25.967Z,961.64
2019-05-02T22:10:25.959Z,961.64
2019-05-02T22:11:25.951Z,961.66
2019-05-02T22:12:25.944Z,961.65
2019-05-02T22:13:25.936Z,961.59
2019-05-02T22:14:25.929Z,961.58
2019-05-02T22:15:25.921Z,961.58
2019-05-02T22:16:25.915Z,961.54
2019-05-02T22:17:25.908Z,961.58
2019-05-02T22:18:25.898Z,961.56
2019-05-02T22:19:25.893Z,961.58
2019-05-02T22:20:25.887Z,961.57
2019-05-02T22:21:25.877Z,961.59
2019-05-02T22:22:25.869Z,961.6
2019-05-02T22:23:25.862Z,961.6
2019-05-02T22:24:25.855Z,961.61
2019-05-02T22:25:25.855Z,961.64
2019-05-02T22:26:25.839Z,961.62
2019-05-02T22:27:25.835Z,961.57
2019-05-02T22:28:25.826Z,961.6
2019-05-02T22:29:25.818Z,961.63
2019-05-02T22:30:25.811Z,961.62
2019-05-02T22:31:25.804Z,961.63
2019-05-02T22:32:25.795Z,961.65
2019-05-02T22:33:25.787Z,961.62
2019-05-02T22:34:25.782Z,961.68
2019-05-02T22:35:25.775Z,961.66
2019-05-02T22:36:25.794Z,961.61
2019-05-02T22:37:25.796Z,961.61
2019-05-02T22:38:25.752Z,961.64
2019-05-02T22:39:25.770Z,961.65
2019-05-02T22:40:25.742Z,961.64
2019-05-02T22:41:25.734Z,961.63
2019-05-02T22:42:25.724Z,961.64
2019-05-02T22:43:25.717Z,961.64
2019-05-02T22:44:25.709Z,961.62
2019-05-02T22:45:25.702Z,961.66
2019-05-02T22:46:25.693Z,961.64
2019-05-02T22:47:25.688Z,961.66
2019-05-02T22:48:25.711Z,961.64
2019-05-02T22:49:25.694Z,961.7
2019-05-02T22:50:25.665Z,961.66
2019-05-02T22:51:25.710Z,961.63
2019-05-02T22:52:25.649Z,961.61
2019-05-02T22:53:25.642Z,961.63
2019-05-02T22:54:30.265Z,961.63
2019-05-02T22:55:25.629Z,961.61
2019-05-02T22:56:25.623Z,961.58
2019-05-02T22:57:25.621Z,961.58
2019-05-02T22:58:25.605Z,961.58
2019-05-02T22:59:25.597Z,961.58
2019-05-02T23:00:25.590Z,961.57
2019-05-02T23:01:25.583Z,961.57
2019-05-02T23:02:25.576Z,961.56
2019-05-02T23:03:25.568Z,961.55
2019-05-02T23:04:25.560Z,961.51
2019-05-02T23:05:25.555Z,961.53
2019-05-02T23:06:25.548Z,961.5
2019-05-02T23:07:25.541Z,961.44
2019-05-02T23:08:25.532Z,961.48
2019-05-02T23:09:25.527Z,961.48
2019-05-02T23:10:25.519Z,961.45
2019-05-02T23:11:25.511Z,961.45
2019-05-02T23:12:25.502Z,961.45
2019-05-02T23:13:25.495Z,961.45
2019-05-02T23:14:25.488Z,961.42
2019-05-02T23:15:25.480Z,961.45
2019-05-02T23:16:25.474Z,961.45
2019-05-02T23:17:25.474Z,961.43
2019-05-02T23:18:25.460Z,961.45
2019-05-02T23:19:25.451Z,961.4
2019-05-02T23:20:25.447Z,961.43
2019-05-02T23:21:25.437Z,961.44
2019-05-02T23:22:25.429Z,961.42
2019-05-02T23:23:25.422Z,961.38
2019-05-02T23:24:36.173Z,961.41
2019-05-02T23:25:25.408Z,961.39
2019-05-02T23:26:25.402Z,961.42
2019-05-02T23:27:25.392Z,961.37
2019-05-02T23:28:25.387Z,961.4
2019-05-02T23:29:25.378Z,961.4
2019-05-02T23:30:25.375Z,961.39
2019-05-02T23:31:25.363Z,961.42
2019-05-02T23:32:25.357Z,961.47
2019-05-02T23:33:25.349Z,961.44
2019-05-02T23:34:25.341Z,961.45
2019-05-02T23:35:25.332Z,961.45
2019-05-02T23:36:25.327Z,961.44
2019-05-02T23:37:25.319Z,961.43
2019-05-02T23:38:25.311Z,961.43
2019-05-02T23:39:25.305Z,961.44
2019-05-02T23:40:25.296Z,961.42
2019-05-02T23:41:25.291Z,961.41
2019-05-02T23:42:25.281Z,961.4
2019-05-02T23:43:25.274Z,961.4
2019-05-02T23:44:25.268Z,961.38
2019-05-02T23:45:25.258Z,961.43
2019-05-02T23:46:25.252Z,961.41
2019-05-02T23:47:25.244Z,961.45
2019-05-02T23:48:25.238Z,961.47
2019-05-02T23:49:25.229Z,961.41
2019-05-02T23:50:25.221Z,961.45
2019-05-02T23:51:25.226Z,961.4
2019-05-02T23:52:25.206Z,961.42
2019-05-02T23:53:25.200Z,961.39
2019-05-02T23:54:25.193Z,961.43
2019-05-02T23:55:25.185Z,961.41
2019-05-02T23:56:25.178Z,961.39
2019-05-02T23:57:25.170Z,961.41
2019-05-02T23:58:25.161Z,961.35
2019-05-02T23:59:25.154Z,961.38
